Latest Weather Observations for Parawa West

IDS60901

Issued at 8:51 am CDT Monday 5 December 2016 (issued every 10 minutes, with the page automatically refreshed every 10 minutes)

About weather observations | Map of Adelaide area stations | Latest observations for Adelaide area | Other Formats
Station Details ID: 023875 Name: SECOND VALLEY FOREST AWS Lat: -35.57 Lon: 138.29 Height: 341.0 m
Data from the previous 72 hours. | See also: Recent months at Parawa West
Date/Time
CDT
Temp
°C
App
Temp
°C
Dew
Point
°C
Rel
Hum
%
Delta-T
°C
Wind Press
QNH
hPa
Press
MSL
hPa
Rain since
9am
mm
Dir  Spd
km/h
Gust
km/h
Spd
kts
Gust
kts
05/08:30am 13.5 9.6 8.8 73 2.4 S 19 28 10 15 1014.3 1013.5 0.0
05/08:00am 13.1 8.5 8.2 72 2.5 S 22 32 12 17 1013.8 1013.0 0.0
05/07:30am 11.7 8.1 8.2 79 1.8 SSW 17 30 9 16 1013.3 1012.5 0.0
05/07:00am 11.6 6.7 8.3 80 1.7 SSW 24 35 13 19 1012.6 1011.8 0.0
05/06:30am 11.3 8.2 8.9 85 1.2 SSW 15 24 8 13 1012.8 1012.0 0.0
05/06:00am 11.5 8.3 9.8 89 0.9 SSW 17 24 9 13 1012.6 1011.8 0.0
05/05:30am 11.4 8.4 9.1 86 1.2 SSW 15 24 8 13 1011.9 1011.1 0.0
05/05:00am 11.8 9.6 9.4 85 1.2 SW 11 17 6 9 1011.9 1011.1 0.0
05/04:30am 12.1 9.8 9.1 82 1.5 SW 11 19 6 10 1011.8 1011.0 0.0
05/04:00am 12.1 9.5 9.3 83 1.4 SSW 13 20 7 11 1011.8 1011.0 0.0
05/03:30am 12.0 9.1 9.7 86 1.2 SSW 15 22 8 12 1011.2 1010.3 0.0
05/03:00am 11.8 8.8 9.2 84 1.3 SSW 15 20 8 11 1010.9 1010.1 0.0
05/02:30am 12.2 10.6 10.1 87 1.1 SSW 9 15 5 8 1011.1 1010.2 0.0
05/02:00am 12.0 9.6 9.9 87 1.1 SSW 13 20 7 11 1010.7 1009.9 0.0
05/01:30am 12.1 10.1 10.2 88 1.0 SSW 11 17 6 9 1010.6 1009.8 0.0
05/01:00am 12.0 8.4 9.7 86 1.2 SSW 19 30 10 16 1009.9 1009.1 0.0
05/12:30am 12.4 9.4 10.6 89 1.0 SSW 17 32 9 17 1009.8 1009.0 0.0
05/12:00am 12.9 10.1 11.3 90 0.9 SW 17 30 9 16 1009.5 1008.7 0.0
 
Date/Time
CDT
Temp
°C
App
Temp
°C
Dew
Point
°C
Rel
Hum
%
Delta-T
°C
Wind Press
QNH
hPa
Press
MSL
hPa
Rain since
9am
mm
Dir  Spd
km/h
Gust
km/h
Spd
kts
Gust
kts
04/11:30pm 13.4 9.8 11.8 90 0.9 SW 22 35 12 19 1009.4 1008.6 0.0
04/11:00pm 13.8 10.8 12.4 91 0.8 SW 20 32 11 17 1009.3 1008.5 0.0
04/10:30pm 14.4 11.2 13.0 91 0.8 SW 22 35 12 19 1009.2 1008.4 0.0
04/10:00pm 15.1 11.7 13.6 91 0.9 SW 24 39 13 21 1008.5 1007.6 0.0
04/09:30pm 17.3 15.3 14.9 86 1.4 SW 19 28 10 15 1007.6 1006.8 0.0
04/09:00pm 19.3 18.3 15.6 79 2.2 WSW 15 22 8 12 1007.2 1006.4 0.0
04/08:30pm 20.1 19.1 15.5 75 2.8 WSW 15 24 8 13 1006.4 1005.6 0.0
04/08:00pm 20.5 17.6 15.1 71 3.2 W 24 35 13 19 1005.7 1004.8 0.0
04/07:30pm 20.2 16.1 16.0 77 2.6 WNW 32 56 17 30 1005.2 1004.3 0.0
04/07:26pm 20.7 17.3 15.9 74 2.9 WNW 28 56 15 30 1005.0 1004.1 0.0
04/07:24pm 21.4 18.7 16.6 74 3.0 WNW 26 46 14 25 1004.8 1004.0 0.0
04/07:00pm 22.5 21.4 17.4 73 3.2 NW 19 28 10 15 1004.1 1003.3 0.0
04/06:30pm 23.7 23.0 17.4 68 4.0 NW 17 35 9 19 1004.0 1003.2 0.0
04/06:00pm 24.9 25.4 17.4 63 4.8 NW 11 32 6 17 1003.1 1002.2 0.0
04/05:30pm 25.1 25.4 17.8 64 4.7 NW 13 26 7 14 1003.1 1002.2 0.0
04/05:00pm 24.3 25.0 18.0 68 4.0 NW 11 24 6 13 1003.2 1002.3 0.0
04/04:30pm 24.4 25.5 18.1 68 4.0 NW 9 20 5 11 1003.5 1002.6 0.0
04/04:00pm 23.3 23.6 18.0 72 3.4 NW 13 24 7 13 1003.6 1002.7 0.0
04/03:30pm 22.8 23.5 17.9 74 3.1 NNW 11 22 6 12 1003.7 1002.8 0.0
04/03:00pm 23.1 24.0 18.4 75 3.0 NW 11 20 6 11 1004.2 1003.4 0.0
04/02:30pm 24.6 26.2 19.2 72 3.5 WNW 9 28 5 15 1005.0 1004.1 0.0
04/02:00pm 23.4 23.4 18.1 72 3.4 NW 15 28 8 15 1005.5 1004.6 0.0
04/01:30pm 21.5 22.5 17.7 79 2.4 NW 9 17 5 9 1006.3 1005.4 0.0
04/01:00pm 21.1 22.0 17.5 80 2.2 WNW 9 24 5 13 1006.6 1005.8 0.0
04/12:30pm 22.3 23.4 17.9 76 2.8 NW 9 24 5 13 1007.1 1006.3 0.0
04/12:00pm 21.7 22.1 17.3 76 2.7 NW 11 26 6 14 1007.3 1006.5 0.0
04/11:30am 21.5 21.0 16.9 75 2.9 NNW 15 39 8 21 1007.3 1006.5 0.0
04/11:00am 21.1 20.7 16.3 74 2.9 NNW 13 30 7 16 1007.7 1006.9 0.0
04/10:30am 21.8 21.7 15.9 69 3.6 NNW 11 30 6 16 1008.1 1007.2 0.0
04/10:00am 22.4 21.7 15.5 65 4.2 NNW 13 30 7 16 1008.4 1007.5 0.0
04/09:30am 22.4 20.0 14.3 60 4.8 NW 20 46 11 25 1008.7 1007.8 0.0
04/09:00am 22.3 19.8 12.3 53 5.8 NW 17 33 9 18 1008.7 1007.8 0.0
04/08:30am 21.7 19.0 10.2 48 6.4 NW 15 30 8 16 1008.3 1007.4 0.0
04/08:00am 21.0 18.9 8.3 44 6.8 NW 9 22 5 12 1007.7 1006.9 0.0
04/07:30am 21.9 20.6 7.7 40 7.5 NW 4 7 2 4 1007.1 1006.3 0.0
04/07:00am 21.4 19.7 5.7 36 8.0 WNW 4 9 2 5 1006.9 1006.1 0.0
04/06:30am 19.7 18.0 4.2 36 7.6 NNE 2 4 1 2 1007.0 1006.2 0.0
04/06:00am 20.0 18.2 3.7 34 7.9 NNE 2 4 1 2 1007.3 1006.5 0.0
04/05:30am 19.1 17.8 4.1 37 7.3 CALM 0 2 0 1 1007.4 1006.6 0.0
04/05:00am 18.8 17.0 3.4 36 7.3 NNE 2 7 1 4 1007.7 1006.9 0.0
04/04:30am 19.1 16.9 3.3 35 7.6 NE 4 7 2 4 1007.4 1006.6 0.0
04/04:00am 18.5 16.9 4.7 40 6.7 NE 2 6 1 3 1007.5 1006.7 0.0
04/03:30am 18.1 15.9 6.3 46 5.9 NNE 7 13 4 7 1007.8 1007.0 0.0
04/03:00am 17.5 15.3 7.8 53 5.0 NNE 9 17 5 9 1008.6 1007.7 0.0
04/02:30am 18.3 15.8 8.0 51 5.4 NNE 11 15 6 8 1008.6 1007.7 0.0
04/02:00am 17.5 15.4 9.7 60 4.2 NNE 11 15 6 8 1009.5 1008.7 0.0
04/01:30am 17.6 15.5 9.8 60 4.2 NNE 11 17 6 9 1009.7 1008.9 0.0
04/01:00am 17.6 15.9 9.8 60 4.2 ENE 9 15 5 8 1009.9 1009.1 0.0
04/12:30am 13.3 11.2 11.2 87 1.1 E 13 17 7 9 1010.1 1009.3 0.0
04/12:00am 12.8 11.7 10.7 87 1.1 SE 7 11 4 6 1010.6 1009.8 0.0
 
Date/Time
CDT
Temp
°C
App
Temp
°C
Dew
Point
°C
Rel
Hum
%
Delta-T
°C
Wind Press
QNH
hPa
Press
MSL
hPa
Rain since
9am
mm
Dir  Spd
km/h
Gust
km/h
Spd
kts
Gust
kts
03/11:30pm 13.2 11.8 10.9 86 1.2 E 9 11 5 6 1011.3 1010.4 0.0
03/11:00pm 12.8 10.6 10.9 88 1.0 E 13 15 7 8 1011.7 1010.9 0.0
03/10:30pm 12.5 11.0 10.4 87 1.1 ESE 9 13 5 7 1011.9 1011.1 0.0
03/10:00pm 12.1 10.9 10.2 88 1.0 SE 7 9 4 5 1012.3 1011.5 0.0
03/09:30pm 12.6 11.5 10.5 87 1.1 SE 7 9 4 5 1012.1 1011.3 0.0
03/09:00pm 13.3 12.4 10.8 85 1.3 E 6 7 3 4 1012.3 1011.5 0.0
03/08:30pm 13.9 12.9 11.1 83 1.5 E 7 11 4 6 1012.2 1011.4 0.0
03/08:00pm 14.1 12.8 11.3 83 1.5 SE 9 11 5 6 1012.0 1011.2 0.0
03/07:30pm 14.3 12.5 10.9 80 1.8 SE 11 15 6 8 1012.0 1011.2 0.0
03/07:00pm 15.2 12.7 11.0 76 2.3 SSE 15 17 8 9 1012.0 1011.2 0.0
03/06:30pm 16.6 14.5 11.3 71 2.9 SSE 13 17 7 9 1012.4 1011.6 0.0
03/06:00pm 17.4 15.8 11.4 68 3.3 SSE 11 15 6 8 1012.0 1011.2 0.0
03/05:30pm 18.7 16.9 11.0 61 4.3 SSE 11 15 6 8 1011.8 1011.0 0.0
03/05:00pm 19.5 17.4 11.3 59 4.6 SE 13 19 7 10 1011.5 1010.7 0.0
03/04:30pm 19.1 17.4 11.2 60 4.4 SSE 11 15 6 8 1012.4 1011.6 0.0
03/04:00pm 19.1 16.8 11.7 62 4.1 SSE 15 17 8 9 1012.8 1012.0 0.0
03/03:30pm 18.7 16.3 11.5 63 4.0 S 15 22 8 12 1013.2 1012.4 0.0
03/03:00pm 18.9 16.4 11.0 60 4.4 S 15 20 8 11 1013.1 1012.3 0.0
03/02:30pm 19.6 17.6 11.4 59 4.6 SSE 13 19 7 10 1013.0 1012.2 0.0
03/02:00pm 19.4 17.4 11.4 60 4.5 SSE 13 17 7 9 1013.0 1012.2 0.0
03/01:30pm 21.0 19.4 12.7 59 4.8 SSE 13 19 7 10 1013.1 1012.3 0.0
03/01:00pm 20.7 18.9 9.3 48 6.2 ENE 9 17 5 9 1013.4 1012.6 0.0
03/12:30pm 20.2 17.8 8.8 48 6.1 NE 11 17 6 9 1013.6 1012.8 0.0
03/12:00pm 20.1 18.9 9.4 50 5.8 NE 6 13 3 7 1013.7 1012.9 0.0
03/11:30am 18.4 16.0 8.7 53 5.1 ENE 11 17 6 9 1014.0 1013.3 0.0
03/11:00am 17.7 14.7 9.1 57 4.6 ESE 15 20 8 11 1013.9 1013.1 0.0
03/10:30am 17.1 13.6 8.8 58 4.4 E 17 20 9 11 1014.2 1013.4 0.0
03/10:00am 16.1 12.4 7.8 58 4.2 ESE 17 24 9 13 1014.5 1013.7 0.0
03/09:30am 14.5 10.2 7.1 61 3.7 ESE 19 24 10 13 1014.7 1013.9 0.0
03/09:00am 13.6 9.2 7.2 65 3.2 E 20 26 11 14 1014.6 1013.8 0.0
03/08:30am 12.2 6.9 6.9 70 2.6 E 24 32 13 17 1014.8 1014.0 0.0
03/08:00am 11.0 5.6 6.4 73 2.2 E 24 30 13 16 1014.8 1014.0 0.0
03/07:30am 11.1 6.3 7.4 78 1.8 E 22 30 12 16 1014.8 1014.0 0.0
03/07:00am 10.0 4.6 6.2 77 1.8 E 24 32 13 17 1014.3 1013.5 0.0
03/06:30am 8.9 4.7 5.8 81 1.4 E 17 22 9 12 1014.5 1013.7 0.0
03/06:00am 8.4 3.9 6.0 85 1.1 E 19 24 10 13 1014.2 1013.4 0.0
03/05:30am 8.6 5.0 6.7 88 0.9 ESE 15 19 8 10 1014.0 1013.3 0.0
03/05:00am 8.5 4.9 6.6 88 0.9 ESE 15 19 8 10 1013.7 1012.9 0.0
03/04:30am 8.7 5.1 6.7 87 0.9 ESE 15 20 8 11 1013.6 1012.8 0.0
03/04:00am 8.7 5.1 6.7 87 0.9 ESE 15 20 8 11 1013.6 1012.8 0.0
03/03:30am 9.1 5.1 6.5 84 1.2 SE 17 22 9 12 1013.7 1012.9 0.0
03/03:00am 9.1 5.0 6.2 82 1.4 SE 17 22 9 12 1013.8 1013.0 0.0
03/02:30am 9.0 4.9 6.1 82 1.4 ESE 17 20 9 11 1013.9 1013.1 0.0
03/02:00am 9.3 4.8 6.2 81 1.5 SE 19 24 10 13 1014.2 1013.4 0.0
03/01:30am 9.0 4.5 6.3 83 1.3 SE 19 24 10 13 1014.5 1013.7 0.0
03/01:00am 8.8 4.3 6.3 84 1.2 SE 19 22 10 12 1014.8 1014.0 0.0
03/12:30am 9.0 4.5 6.3 83 1.3 SE 19 22 10 12 1015.1 1014.3 0.0
03/12:00am 9.5 5.0 6.8 83 1.3 SE 20 26 11 14 1015.5 1014.7 0.0
 
Date/Time
CDT
Temp
°C
App
Temp
°C
Dew
Point
°C
Rel
Hum
%
Delta-T
°C
Wind Press
QNH
hPa
Press
MSL
hPa
Rain since
9am
mm
Dir  Spd
km/h
Gust
km/h
Spd
kts
Gust
kts
02/11:30pm 9.9 5.4 6.8 81 1.5 SE 20 28 11 15 1015.6 1014.8 0.0
02/11:00pm 9.8 5.2 6.5 80 1.6 SE 20 24 11 13 1015.6 1014.8 0.0
02/10:30pm 10.3 5.3 6.6 78 1.8 SE 22 28 12 15 1015.7 1014.9 0.0
02/10:00pm 10.4 5.4 6.5 77 1.9 SE 22 32 12 17 1015.7 1014.9 0.0
02/09:30pm 10.5 5.6 6.8 78 1.8 SE 22 28 12 15 1015.5 1014.7 0.0
02/09:00pm 10.5 5.9 6.5 76 1.9 SE 20 30 11 16 1015.8 1015.0 0.0
02/08:30pm 10.5 6.0 6.8 78 1.8 SE 20 26 11 14 1015.6 1014.8 0.0
02/08:00pm 11.2 6.8 7.5 78 1.8 SSE 20 28 11 15 1015.4 1014.6 0.0
02/07:30pm 12.0 6.6 7.9 76 2.0 SSE 26 30 14 16 1015.2 1014.4 0.0
02/07:00pm 12.5 7.1 8.0 74 2.3 SSE 26 32 14 17 1014.9 1014.1 0.0
02/06:30pm 12.9 7.9 8.0 72 2.5 SSE 24 32 13 17 1014.8 1014.0 0.0
02/06:00pm 13.3 8.3 8.0 70 2.7 SSE 24 33 13 18 1014.6 1013.8 0.0
02/05:30pm 14.1 9.7 8.9 71 2.7 SSE 22 30 12 16 1014.9 1014.1 0.0
02/05:00pm 14.6 10.3 9.4 71 2.7 SSE 22 32 12 17 1015.0 1014.2 0.0
02/04:30pm 14.6 9.9 9.2 70 2.8 SSE 24 30 13 16 1015.0 1014.2 0.0
02/04:00pm 14.4 9.2 8.8 69 2.9 SSE 26 33 14 18 1014.9 1014.1 0.0
02/03:30pm 15.5 10.8 9.4 67 3.2 SSE 24 32 13 17 1014.7 1013.9 0.0
02/03:00pm 14.9 10.8 8.6 66 3.2 SSE 20 28 11 15 1014.9 1014.1 0.0
02/02:30pm 15.0 11.0 8.3 64 3.4 SSE 19 30 10 16 1015.1 1014.3 0.0
02/02:00pm 15.3 11.2 8.8 65 3.4 SSE 20 28 11 15 1015.2 1014.4 0.0
02/01:30pm 14.9 11.0 8.6 66 3.2 SSE 19 26 10 14 1015.2 1014.4 0.0
02/01:00pm 15.3 11.6 10.1 71 2.8 S 20 28 11 15 1015.1 1014.3 0.0
02/12:30pm 15.1 11.1 10.3 73 2.6 SSE 22 28 12 15 1015.0 1014.2 0.0
02/12:00pm 15.1 11.4 10.3 73 2.6 SSE 20 26 11 14 1015.1 1014.3 0.0
02/11:30am 14.6 11.0 10.4 76 2.2 SSE 20 28 11 15 1015.0 1014.2 0.0
02/11:00am 15.1 11.4 9.5 69 2.9 SSE 19 26 10 14 1015.0 1014.2 0.0
02/10:30am 13.8 10.4 9.3 74 2.3 S 17 20 9 11 1015.1 1014.3 0.0
02/10:00am 14.0 10.6 10.6 80 1.8 S 19 24 10 13 1014.8 1014.0 0.0
02/09:30am 14.4 11.7 10.4 77 2.1 S 15 20 8 11 1014.5 1013.7 0.0
02/09:00am 13.4 11.4 10.0 80 1.8 S 11 17 6 9 1014.4 1013.6 0.0

Latest Capital City Observations: Canberra | Sydney | Melbourne | Brisbane | Adelaide | Perth | Hobart | Darwin

Other Formats:

Comma delimited format used in spreadsheet applications
http://www.bom.gov.au/fwo/IDS60901/IDS60901.94811.axf

JavaScript Object Notation format (JSON) in row-major order
http://www.bom.gov.au/fwo/IDS60901/IDS60901.94811.json